createdAt,value
2016-11-08T00:00:39.696Z,22.18
2016-11-08T00:01:52.461Z,22.1
2016-11-08T00:03:04.925Z,22.1
2016-11-08T00:04:18.317Z,22.1
2016-11-08T00:05:31.931Z,22.06
2016-11-08T00:06:44.956Z,22.03
2016-11-08T00:07:58.364Z,21.99
2016-11-08T00:09:11.655Z,22
2016-11-08T00:10:24.073Z,21.91
2016-11-08T00:11:37.664Z,21.94
2016-11-08T00:12:51.395Z,21.84
2016-11-08T00:14:03.990Z,21.8
2016-11-08T00:15:16.809Z,21.86
2016-11-08T00:16:29.828Z,21.91
2016-11-08T00:17:43.164Z,21.86
2016-11-08T00:18:56.771Z,21.86
2016-11-08T00:20:10.412Z,21.77
2016-11-08T00:21:23.461Z,21.88
2016-11-08T00:22:36.498Z,21.9
2016-11-08T00:23:49.465Z,21.82
2016-11-08T00:25:03.043Z,21.74
2016-11-08T00:26:16.150Z,21.71
2016-11-08T00:29:14.397Z,21.9
2016-11-08T00:30:28.002Z,21.79
2016-11-08T00:31:41.124Z,21.68
2016-11-08T00:32:54.703Z,21.72
2016-11-08T00:34:07.713Z,21.74
2016-11-08T00:35:20.234Z,21.69
2016-11-08T00:36:33.247Z,21.68
2016-11-08T00:37:46.319Z,21.72
2016-11-08T00:38:59.852Z,21.68
2016-11-08T00:40:12.928Z,21.67
2016-11-08T00:41:26.238Z,21.68
2016-11-08T00:42:39.831Z,21.71
2016-11-08T00:43:52.913Z,21.61
2016-11-08T00:45:05.919Z,21.69
2016-11-08T00:46:19.247Z,21.69
2016-11-08T00:47:32.329Z,21.64
2016-11-08T00:48:45.398Z,21.61
2016-11-08T00:49:59.004Z,21.56
2016-11-08T00:51:12.068Z,21.59
2016-11-08T00:52:25.922Z,21.62
2016-11-08T00:53:39.588Z,21.69
2016-11-08T00:54:52.143Z,21.56
2016-11-08T00:56:05.724Z,21.56
2016-11-08T00:57:19.334Z,21.61
2016-11-08T00:58:32.403Z,21.56
2016-11-08T00:59:46.036Z,21.56
2016-11-08T01:00:59.089Z,21.5
2016-11-08T01:02:12.651Z,21.52
2016-11-08T01:03:25.696Z,21.54
2016-11-08T01:04:39.268Z,21.49
2016-11-08T01:05:52.879Z,21.52
2016-11-08T01:07:06.453Z,21.49
2016-11-08T01:08:19.976Z,21.54
2016-11-08T01:09:33.268Z,21.56
2016-11-08T01:10:46.914Z,21.54
2016-11-08T01:12:00.474Z,21.53
2016-11-08T01:13:14.118Z,21.54
2016-11-08T01:14:27.749Z,21.53
2016-11-08T01:15:41.398Z,21.47
2016-11-08T01:16:53.938Z,21.5
2016-11-08T01:18:07.594Z,21.54
2016-11-08T01:19:20.886Z,21.54
2016-11-08T01:20:34.481Z,21.58
2016-11-08T01:21:48.411Z,21.49
2016-11-08T01:23:01.434Z,21.47
2016-11-08T01:24:15.053Z,21.49
2016-11-08T01:25:28.547Z,21.46
2016-11-08T01:26:42.109Z,21.46
2016-11-08T01:27:55.844Z,21.35
2016-11-08T01:29:09.422Z,21.32
2016-11-08T01:30:22.544Z,21.4
2016-11-08T01:31:36.118Z,21.32
2016-11-08T01:32:49.704Z,21.32
2016-11-08T01:34:03.247Z,21.29
2016-11-08T01:35:16.852Z,21.29
2016-11-08T01:36:29.448Z,21.28
2016-11-08T01:37:41.893Z,21.34
2016-11-08T01:38:55.254Z,21.34
2016-11-08T01:40:08.336Z,21.32
2016-11-08T01:41:21.475Z,21.35
2016-11-08T01:42:35.100Z,21.27
2016-11-08T01:43:48.638Z,21.24
2016-11-08T01:45:02.228Z,21.22
2016-11-08T01:46:15.807Z,21.14
2016-11-08T01:47:29.351Z,21.19
2016-11-08T01:48:43.010Z,21.17
2016-11-08T01:49:56.550Z,21.21
2016-11-08T01:51:10.212Z,21.16
2016-11-08T01:52:23.768Z,21.09
2016-11-08T01:53:37.354Z,21.07
2016-11-08T01:54:50.380Z,21.04
2016-11-08T01:56:03.462Z,20.97
2016-11-08T01:57:16.479Z,20.98
2016-11-08T01:58:30.052Z,21.01
2016-11-08T01:59:42.582Z,20.97
2016-11-08T02:00:55.606Z,20.94
2016-11-08T02:02:09.165Z,21.01
2016-11-08T02:03:22.213Z,20.89
2016-11-08T02:04:35.813Z,20.94
2016-11-08T02:05:49.357Z,20.88
2016-11-08T02:07:02.897Z,20.91
2016-11-08T02:08:16.502Z,20.87
2016-11-08T02:09:29.090Z,20.88
2016-11-08T02:10:42.649Z,20.89
2016-11-08T02:11:55.718Z,20.94
2016-11-08T02:13:08.775Z,20.77
2016-11-08T02:14:22.346Z,20.77
2016-11-08T02:15:35.447Z,20.72
2016-11-08T02:16:49.101Z,20.69
2016-11-08T02:18:02.181Z,20.77
2016-11-08T02:19:15.792Z,20.79
2016-11-08T02:20:29.472Z,20.7
2016-11-08T02:21:42.512Z,20.69
2016-11-08T02:22:56.179Z,20.73
2016-11-08T02:24:09.227Z,20.79
2016-11-08T02:25:22.577Z,20.77
2016-11-08T02:26:36.234Z,20.7
2016-11-08T02:27:49.890Z,20.73
2016-11-08T02:29:03.470Z,20.84
2016-11-08T02:30:16.539Z,20.76
2016-11-08T02:31:29.807Z,20.84
2016-11-08T02:32:43.344Z,20.77
2016-11-08T02:33:56.946Z,20.76
2016-11-08T02:35:10.512Z,20.69
2016-11-08T02:36:23.019Z,20.61
2016-11-08T02:37:36.717Z,20.59
2016-11-08T02:38:50.344Z,20.62
2016-11-08T02:40:03.421Z,20.66
2016-11-08T02:41:16.959Z,20.58
2016-11-08T02:42:30.449Z,20.62
2016-11-08T02:43:43.976Z,20.55
2016-11-08T02:44:57.029Z,20.66
2016-11-08T02:46:10.511Z,20.61
2016-11-08T02:47:23.904Z,20.67
2016-11-08T02:48:36.639Z,20.66
2016-11-08T02:49:50.267Z,20.73
2016-11-08T02:51:03.913Z,20.73
2016-11-08T02:52:48.628Z,20.66
2016-11-08T02:54:02.198Z,20.59
2016-11-08T02:55:15.811Z,20.66
2016-11-08T02:56:29.446Z,20.64
2016-11-08T02:57:43.058Z,20.57
2016-11-08T02:58:56.569Z,20.62
2016-11-08T03:00:10.120Z,20.59
2016-11-08T03:01:23.623Z,20.57
2016-11-08T03:02:36.671Z,20.61
2016-11-08T03:03:49.709Z,20.57
2016-11-08T03:05:03.233Z,20.51
2016-11-08T03:06:16.733Z,20.55
2016-11-08T03:07:29.799Z,20.47
2016-11-08T03:08:43.371Z,20.42
2016-11-08T03:09:56.466Z,20.42
2016-11-08T03:11:10.048Z,20.5
2016-11-08T03:12:23.629Z,20.42
2016-11-08T03:13:37.178Z,20.43
2016-11-08T03:14:50.772Z,20.42
2016-11-08T03:16:04.382Z,20.41
2016-11-08T03:17:17.479Z,20.39
2016-11-08T03:18:31.069Z,20.48
2016-11-08T03:19:44.569Z,20.42
2016-11-08T03:20:58.209Z,20.47
2016-11-08T03:22:11.280Z,20.51
2016-11-08T03:23:24.537Z,20.52
2016-11-08T03:24:37.559Z,20.54
2016-11-08T03:25:51.526Z,20.54
2016-11-08T03:27:05.204Z,20.42
2016-11-08T03:28:18.790Z,20.43
2016-11-08T03:30:03.439Z,20.24
2016-11-08T03:31:16.776Z,20.33
2016-11-08T03:32:29.292Z,20.38
2016-11-08T03:33:42.854Z,20.43
2016-11-08T03:34:56.394Z,20.43
2016-11-08T03:36:09.424Z,20.39
2016-11-08T03:37:23.033Z,20.43
2016-11-08T03:38:36.707Z,20.42
2016-11-08T03:39:50.255Z,20.42
2016-11-08T03:41:03.841Z,20.42
2016-11-08T03:42:17.433Z,20.42
2016-11-08T03:45:15.219Z,20.47
2016-11-08T03:46:28.852Z,20.41
2016-11-08T03:47:42.421Z,20.42
2016-11-08T03:48:56.021Z,20.47
2016-11-08T03:50:09.112Z,20.47
2016-11-08T03:51:22.667Z,20.39
2016-11-08T03:52:36.212Z,20.29
2016-11-08T03:53:49.842Z,20.29
2016-11-08T03:55:03.439Z,20.31
2016-11-08T03:56:17.014Z,20.36
2016-11-08T03:57:30.526Z,20.26
2016-11-08T03:58:44.185Z,20.32
2016-11-08T03:59:57.895Z,20.23
2016-11-08T04:01:11.611Z,20.23
2016-11-08T04:02:25.297Z,20.36
2016-11-08T04:03:38.734Z,20.31
2016-11-08T04:04:52.370Z,20.38
2016-11-08T04:06:06.161Z,20.33
2016-11-08T04:07:19.029Z,20.32
2016-11-08T04:08:32.737Z,20.39
2016-11-08T04:09:45.854Z,20.33
2016-11-08T04:10:58.959Z,20.33
2016-11-08T04:12:12.062Z,20.29
2016-11-08T04:13:25.840Z,20.35
2016-11-08T04:14:38.454Z,20.26
2016-11-08T04:15:52.085Z,20.29
2016-11-08T04:17:05.949Z,20.33
2016-11-08T04:18:19.605Z,20.33
2016-11-08T04:19:33.269Z,20.31
2016-11-08T04:20:46.323Z,20.32
2016-11-08T04:21:59.947Z,20.28
2016-11-08T04:23:13.619Z,20.26
2016-11-08T04:24:27.687Z,20.24
2016-11-08T04:25:41.259Z,20.21
2016-11-08T04:26:54.930Z,20.24
2016-11-08T04:28:08.213Z,20.26
2016-11-08T04:29:21.863Z,20.28
2016-11-08T04:30:34.968Z,20.23
2016-11-08T04:31:48.618Z,20.11
2016-11-08T04:33:01.729Z,20.23
2016-11-08T04:34:14.854Z,20.21
2016-11-08T04:35:28.787Z,20.08
2016-11-08T04:36:42.393Z,20.1
2016-11-08T04:37:55.791Z,20.2
2016-11-08T04:39:09.400Z,20.14
2016-11-08T04:40:23.046Z,20.17
2016-11-08T04:41:36.148Z,20.1
2016-11-08T04:42:49.767Z,20.11
2016-11-08T04:44:03.439Z,20.14
2016-11-08T04:45:16.507Z,20.13
2016-11-08T04:46:30.144Z,20.14
2016-11-08T04:47:43.727Z,20.02
2016-11-08T04:48:57.620Z,20.1
2016-11-08T04:50:11.310Z,20.06
2016-11-08T04:51:24.958Z,20.03
2016-11-08T04:52:38.610Z,19.78
2016-11-08T04:53:51.676Z,19.68
2016-11-08T04:55:05.396Z,19.62
2016-11-08T04:56:19.033Z,19.73
2016-11-08T04:57:32.407Z,19.76
2016-11-08T04:58:45.465Z,19.86
2016-11-08T04:59:59.057Z,19.87
2016-11-08T05:01:12.628Z,19.94
2016-11-08T05:02:25.308Z,19.78
2016-11-08T05:03:38.932Z,19.71
2016-11-08T05:04:52.012Z,19.74
2016-11-08T05:06:05.130Z,19.65
2016-11-08T05:07:18.658Z,19.8
2016-11-08T05:08:32.385Z,19.8
2016-11-08T05:09:46.038Z,19.83
2016-11-08T05:10:59.633Z,19.69
2016-11-08T05:12:13.373Z,19.73
2016-11-08T05:13:26.422Z,19.74
2016-11-08T05:14:39.497Z,19.68
2016-11-08T05:15:53.170Z,19.63
2016-11-08T05:17:06.336Z,19.51
2016-11-08T05:18:19.404Z,19.44
2016-11-08T05:19:33.052Z,19.5
2016-11-08T05:20:46.675Z,19.5
2016-11-08T05:21:59.673Z,19.54
2016-11-08T05:23:13.255Z,19.47
2016-11-08T05:24:26.783Z,19.55
2016-11-08T05:25:40.371Z,19.47
2016-11-08T05:26:53.926Z,19.51
2016-11-08T05:28:07.171Z,19.56
2016-11-08T05:29:20.751Z,19.59
2016-11-08T05:30:34.332Z,19.54
2016-11-08T05:31:47.987Z,19.47
2016-11-08T05:33:01.059Z,19.63
2016-11-08T05:34:14.588Z,19.61
2016-11-08T05:35:28.187Z,19.5
2016-11-08T05:36:41.791Z,19.5
2016-11-08T05:37:54.861Z,19.48
2016-11-08T05:39:08.459Z,19.5
2016-11-08T05:40:22.079Z,19.5
2016-11-08T05:41:35.698Z,19.66
2016-11-08T05:42:48.730Z,19.65
2016-11-08T05:44:01.499Z,19.68
2016-11-08T05:45:14.506Z,19.62
2016-11-08T05:46:27.665Z,19.63
2016-11-08T05:47:41.218Z,19.69
2016-11-08T05:48:54.797Z,19.77
2016-11-08T05:50:07.893Z,19.59
2016-11-08T05:51:21.577Z,19.5
2016-11-08T05:52:35.186Z,19.5
2016-11-08T05:53:48.428Z,19.59
2016-11-08T05:55:02.079Z,19.68
2016-11-08T05:56:15.706Z,19.56
2016-11-08T05:57:29.230Z,19.63
2016-11-08T05:58:42.702Z,19.62
2016-11-08T05:59:56.211Z,19.66
2016-11-08T06:01:09.816Z,19.62
2016-11-08T06:02:23.324Z,19.63
2016-11-08T06:03:36.903Z,19.68
2016-11-08T06:04:50.483Z,19.65
2016-11-08T06:06:03.348Z,19.59
2016-11-08T06:07:17.002Z,19.63
2016-11-08T06:10:14.742Z,19.69
2016-11-08T06:11:27.741Z,19.68
2016-11-08T06:12:40.888Z,19.68
2016-11-08T06:13:53.477Z,19.61
2016-11-08T06:15:07.005Z,19.68
2016-11-08T06:16:20.651Z,19.73
2016-11-08T06:17:33.742Z,19.65
2016-11-08T06:18:47.304Z,19.58
2016-11-08T06:20:00.930Z,19.58
2016-11-08T06:21:13.967Z,19.58
2016-11-08T06:22:27.719Z,19.66
2016-11-08T06:23:40.963Z,19.56
2016-11-08T06:24:54.633Z,19.66
2016-11-08T06:26:07.709Z,19.48
2016-11-08T06:27:21.549Z,19.61
2016-11-08T06:28:35.058Z,19.56
2016-11-08T06:29:48.640Z,19.68
2016-11-08T06:31:02.201Z,19.63
2016-11-08T06:32:14.757Z,19.62
2016-11-08T06:33:27.294Z,19.62
2016-11-08T06:34:40.360Z,19.56
2016-11-08T06:35:53.476Z,19.51
2016-11-08T06:37:06.766Z,19.58
2016-11-08T06:38:19.293Z,19.4
2016-11-08T06:39:32.921Z,19.51
2016-11-08T06:40:46.510Z,19.5
2016-11-08T06:41:59.303Z,19.51
2016-11-08T06:43:12.877Z,19.48
2016-11-08T06:44:57.671Z,19.48
2016-11-08T06:46:10.718Z,19.55
2016-11-08T06:47:23.793Z,19.43
2016-11-08T06:48:37.403Z,19.46
2016-11-08T06:49:50.923Z,19.41
2016-11-08T06:51:04.464Z,19.31
2016-11-08T06:52:17.556Z,19.36
2016-11-08T06:53:30.607Z,19.37
2016-11-08T06:54:44.211Z,19.41
2016-11-08T06:55:57.814Z,19.41
2016-11-08T06:57:11.355Z,19.43
2016-11-08T06:58:25.031Z,19.26
2016-11-08T06:59:38.649Z,19.28
2016-11-08T07:00:50.577Z,19.32
2016-11-08T07:02:03.619Z,19.4
2016-11-08T07:03:16.665Z,19.39
2016-11-08T07:04:30.239Z,19.43
2016-11-08T07:05:43.265Z,19.39
2016-11-08T07:06:56.853Z,19.44
2016-11-08T07:08:10.171Z,19.43
2016-11-08T07:09:23.019Z,19.4
2016-11-08T07:10:36.328Z,19.48
2016-11-08T07:11:49.384Z,19.47
2016-11-08T07:13:02.911Z,19.47
2016-11-08T07:14:15.947Z,19.37
2016-11-08T07:15:29.516Z,19.39
2016-11-08T07:16:42.563Z,19.39
2016-11-08T07:17:55.873Z,19.47
2016-11-08T07:19:09.469Z,19.44
2016-11-08T07:20:22.421Z,19.29
2016-11-08T07:21:35.685Z,19.32
2016-11-08T07:22:49.226Z,19.29
2016-11-08T07:24:02.834Z,19.36
2016-11-08T07:25:15.882Z,19.41
2016-11-08T07:26:28.815Z,19.4
2016-11-08T07:27:42.436Z,19.36
2016-11-08T07:28:55.453Z,19.4
2016-11-08T07:30:09.080Z,19.41
2016-11-08T07:31:22.636Z,19.41
2016-11-08T07:32:36.244Z,19.33
2016-11-08T07:33:49.017Z,19.31
2016-11-08T07:35:02.590Z,19.21
2016-11-08T07:36:16.215Z,19.06
2016-11-08T07:37:29.044Z,19.07
2016-11-08T07:38:42.726Z,19.13
2016-11-08T07:39:56.286Z,19.14
2016-11-08T07:41:09.907Z,19.1
2016-11-08T07:42:23.477Z,18.98
2016-11-08T07:43:36.471Z,18.91
2016-11-08T07:44:50.067Z,18.81
2016-11-08T07:46:03.590Z,18.82
2016-11-08T07:47:17.146Z,18.85
2016-11-08T07:48:30.625Z,18.76
2016-11-08T07:49:43.204Z,18.84
2016-11-08T07:50:56.786Z,18.84
2016-11-08T07:52:10.411Z,18.75
2016-11-08T07:53:23.404Z,18.81
2016-11-08T07:54:37.003Z,18.91
2016-11-08T07:55:50.595Z,18.95
2016-11-08T07:57:04.166Z,18.99
2016-11-08T07:58:17.734Z,18.9
2016-11-08T07:59:31.285Z,18.85
2016-11-08T08:00:44.822Z,18.78
2016-11-08T08:01:58.374Z,18.78
2016-11-08T08:03:11.398Z,18.82
2016-11-08T08:04:24.949Z,18.6
2016-11-08T08:05:38.535Z,18.55
2016-11-08T08:06:50.503Z,18.45
2016-11-08T08:08:04.260Z,18.48
2016-11-08T08:09:17.302Z,18.47
2016-11-08T08:10:30.383Z,18.54
2016-11-08T08:11:44.004Z,18.5
2016-11-08T08:13:28.808Z,18.48
2016-11-08T08:14:42.406Z,18.45
2016-11-08T08:15:55.568Z,18.42
2016-11-08T08:17:08.601Z,18.36
2016-11-08T08:18:21.760Z,18.36
2016-11-08T08:19:35.399Z,18.32
2016-11-08T08:20:49.020Z,18.48
2016-11-08T08:22:02.454Z,18.44
2016-11-08T08:23:15.997Z,18.29
2016-11-08T08:24:29.381Z,18.29
2016-11-08T08:25:43.018Z,18.45
2016-11-08T08:26:56.025Z,18.48
2016-11-08T08:28:09.152Z,18.72
2016-11-08T08:29:22.730Z,18.65
2016-11-08T08:30:36.303Z,18.58
2016-11-08T08:31:49.898Z,18.75
2016-11-08T08:33:02.956Z,18.75
2016-11-08T08:34:15.999Z,18.6
2016-11-08T08:35:29.609Z,18.69
2016-11-08T08:36:42.655Z,18.75
2016-11-08T08:37:56.208Z,18.76
2016-11-08T08:39:09.835Z,18.75
2016-11-08T08:40:22.866Z,18.88
2016-11-08T08:41:36.358Z,18.72
2016-11-08T08:42:49.888Z,18.69
2016-11-08T08:44:03.423Z,18.57
2016-11-08T08:45:15.405Z,18.57
2016-11-08T08:46:28.664Z,18.67
2016-11-08T08:47:42.281Z,18.63
2016-11-08T08:48:55.851Z,18.69
2016-11-08T08:50:09.189Z,18.78
2016-11-08T08:51:22.798Z,18.81
2016-11-08T08:52:35.826Z,18.76
2016-11-08T08:53:49.412Z,18.67
2016-11-08T08:55:03.075Z,18.78
2016-11-08T08:56:16.116Z,18.72
2016-11-08T08:57:29.655Z,18.7
2016-11-08T08:58:43.222Z,18.8
2016-11-08T08:59:56.213Z,18.65
2016-11-08T09:01:09.754Z,18.76
2016-11-08T09:02:23.264Z,18.76
2016-11-08T09:03:35.772Z,18.76
2016-11-08T09:04:49.374Z,18.8
2016-11-08T09:06:02.884Z,18.85
2016-11-08T09:07:16.474Z,18.75
2016-11-08T09:08:30.057Z,18.85
2016-11-08T09:09:43.594Z,18.91
2016-11-08T09:10:56.694Z,18.92
2016-11-08T09:12:10.257Z,18.91
2016-11-08T09:13:23.884Z,18.9
2016-11-08T09:14:37.542Z,18.91
2016-11-08T09:15:50.847Z,18.82
2016-11-08T09:17:04.347Z,18.98
2016-11-08T09:18:17.922Z,18.9
2016-11-08T09:19:31.539Z,18.9
2016-11-08T09:20:44.605Z,18.88
2016-11-08T09:21:57.753Z,18.91
2016-11-08T09:23:11.363Z,18.82
2016-11-08T09:24:24.993Z,18.88
2016-11-08T09:25:38.570Z,18.9
2016-11-08T09:26:51.609Z,18.82
2016-11-08T09:28:04.976Z,18.91
2016-11-08T09:29:18.559Z,19.02
2016-11-08T09:30:32.065Z,19.08
2016-11-08T09:31:45.156Z,19.1
2016-11-08T09:32:58.417Z,19.23
2016-11-08T09:34:12.031Z,19.13
2016-11-08T09:35:24.717Z,19.07
2016-11-08T09:36:38.020Z,19.14
2016-11-08T09:37:51.618Z,19.22
2016-11-08T09:39:05.270Z,19.32
2016-11-08T09:40:18.858Z,19.31
2016-11-08T09:41:32.420Z,19.28
2016-11-08T09:42:45.959Z,19.37
2016-11-08T09:43:59.499Z,19.5
2016-11-08T09:45:13.103Z,19.78
2016-11-08T09:46:26.689Z,19.77
2016-11-08T09:49:25.006Z,20.03
2016-11-08T09:50:38.160Z,20.14
2016-11-08T09:51:51.696Z,20.24
2016-11-08T09:53:04.445Z,20.28
2016-11-08T09:54:17.534Z,20.2
2016-11-08T09:55:30.020Z,20.18
2016-11-08T09:56:43.031Z,20.23
2016-11-08T09:57:56.610Z,20.16
2016-11-08T09:59:09.779Z,20.1
2016-11-08T10:00:23.049Z,20.16
2016-11-08T10:01:36.149Z,20.17
2016-11-08T10:02:49.700Z,20.02
2016-11-08T10:04:02.770Z,20.08
2016-11-08T10:05:16.321Z,20.06
2016-11-08T10:06:29.350Z,20.03
2016-11-08T10:07:42.390Z,20.02
2016-11-08T10:08:56.007Z,20.02
2016-11-08T10:10:09.450Z,20.06
2016-11-08T10:11:22.469Z,20.13
2016-11-08T10:12:36.052Z,20.11
2016-11-08T10:13:49.572Z,20.35
2016-11-08T10:15:03.131Z,20.23
2016-11-08T10:16:15.645Z,20.35
2016-11-08T10:17:28.656Z,20.31
2016-11-08T10:18:42.198Z,20.38
2016-11-08T10:19:55.916Z,20.33
2016-11-08T10:21:09.466Z,20.32
2016-11-08T10:22:22.950Z,20.32
2016-11-08T10:23:36.539Z,20.29
2016-11-08T10:24:50.190Z,20.21
2016-11-08T10:26:03.757Z,20.17
2016-11-08T10:27:17.407Z,20.2
2016-11-08T10:28:31.038Z,20.23
2016-11-08T10:29:44.393Z,20.28
2016-11-08T10:30:58.104Z,20.33
2016-11-08T10:32:11.166Z,20.42
2016-11-08T10:33:24.686Z,20.41
2016-11-08T10:34:38.038Z,20.64
2016-11-08T10:35:51.111Z,20.55
2016-11-08T10:37:04.164Z,20.59
2016-11-08T10:38:17.471Z,20.61
2016-11-08T10:39:31.119Z,20.59
2016-11-08T10:41:15.766Z,20.58
2016-11-08T10:42:29.311Z,20.58
2016-11-08T10:43:42.919Z,20.55
2016-11-08T10:44:56.575Z,20.57
2016-11-08T10:46:09.614Z,20.5
2016-11-08T10:47:23.242Z,20.59
2016-11-08T10:48:36.588Z,20.66
2016-11-08T10:49:49.240Z,20.72
2016-11-08T10:51:02.927Z,20.74
2016-11-08T10:52:16.267Z,20.79
2016-11-08T10:53:29.802Z,20.8
2016-11-08T10:54:43.380Z,20.85
2016-11-08T10:55:56.406Z,20.82
2016-11-08T10:57:10.022Z,20.77
2016-11-08T10:58:23.656Z,20.76
2016-11-08T10:59:37.264Z,20.91
2016-11-08T11:00:50.862Z,20.94
2016-11-08T11:02:04.518Z,20.89
2016-11-08T11:03:17.620Z,21.07
2016-11-08T11:04:31.181Z,20.99
2016-11-08T11:05:44.796Z,20.98
2016-11-08T11:06:57.857Z,20.99
2016-11-08T11:08:11.462Z,21.01
2016-11-08T11:09:24.989Z,20.98
2016-11-08T11:10:38.603Z,20.88
2016-11-08T11:11:52.205Z,20.89
2016-11-08T11:13:05.816Z,20.97
2016-11-08T11:14:19.363Z,20.88
2016-11-08T11:17:16.819Z,21.07
2016-11-08T11:18:29.869Z,21.1
2016-11-08T11:19:43.420Z,21.09
2016-11-08T11:20:56.340Z,21.16
2016-11-08T11:22:09.960Z,21.22
2016-11-08T11:23:23.024Z,21.21
2016-11-08T11:24:35.039Z,21.29
2016-11-08T11:25:48.594Z,21.42
2016-11-08T11:27:02.213Z,21.35
2016-11-08T11:28:15.717Z,21.35
2016-11-08T11:29:28.997Z,21.43
2016-11-08T11:30:42.561Z,21.44
2016-11-08T11:31:56.208Z,21.49
2016-11-08T11:33:09.735Z,21.54
2016-11-08T11:34:23.322Z,21.69
2016-11-08T11:35:36.973Z,21.62
2016-11-08T11:36:50.568Z,21.64
2016-11-08T11:38:04.175Z,21.68
2016-11-08T11:39:17.762Z,21.67
2016-11-08T11:40:31.336Z,21.83
2016-11-08T11:41:44.618Z,21.92
2016-11-08T11:42:58.102Z,21.91
2016-11-08T11:44:11.130Z,22.03
2016-11-08T11:45:24.810Z,21.98
2016-11-08T11:46:37.827Z,21.98
2016-11-08T11:47:51.708Z,22.03
2016-11-08T11:49:05.313Z,22.07
2016-11-08T11:50:18.877Z,22.15
2016-11-08T11:51:32.462Z,22.21
2016-11-08T11:52:46.036Z,22.24
2016-11-08T11:53:59.352Z,22.24
2016-11-08T11:55:12.450Z,22.22
2016-11-08T11:56:26.113Z,22.17
2016-11-08T11:57:39.684Z,22.22
2016-11-08T11:58:53.223Z,22.39
2016-11-08T12:00:06.853Z,22.35
2016-11-08T12:01:19.985Z,22.35
2016-11-08T12:02:33.498Z,22.47
2016-11-08T12:03:47.123Z,22.45
2016-11-08T12:05:00.158Z,22.55
2016-11-08T12:06:13.151Z,22.52
2016-11-08T12:07:26.778Z,22.49
2016-11-08T12:08:40.351Z,22.62
2016-11-08T12:09:53.377Z,22.52
2016-11-08T12:11:06.913Z,22.67
2016-11-08T12:12:19.957Z,22.58
2016-11-08T12:13:33.041Z,22.64
2016-11-08T12:14:46.599Z,22.65
2016-11-08T12:16:00.158Z,22.76
2016-11-08T12:17:13.159Z,22.76
2016-11-08T12:18:26.758Z,22.88
2016-11-08T12:19:39.290Z,22.9
2016-11-08T12:20:52.887Z,22.95
2016-11-08T12:22:05.903Z,23.09
2016-11-08T12:23:18.887Z,23
2016-11-08T12:24:32.444Z,23.01
2016-11-08T12:25:45.513Z,23.15
2016-11-08T12:26:58.582Z,23.17
2016-11-08T12:28:11.856Z,23.16
2016-11-08T12:29:25.392Z,23.32
2016-11-08T12:30:38.967Z,23.38
2016-11-08T12:31:52.079Z,23.32
2016-11-08T12:33:05.690Z,23.36
2016-11-08T12:34:18.763Z,23.39
2016-11-08T12:35:32.593Z,23.47
2016-11-08T12:36:46.131Z,23.5
2016-11-08T12:37:59.725Z,23.55
2016-11-08T12:39:13.315Z,23.57
2016-11-08T12:40:26.844Z,23.75
2016-11-08T12:41:40.765Z,23.73
2016-11-08T12:42:54.381Z,23.84
2016-11-08T12:44:07.999Z,23.75
2016-11-08T12:45:20.799Z,23.8
2016-11-08T12:46:33.881Z,23.91
2016-11-08T12:47:47.453Z,23.98
2016-11-08T12:49:00.789Z,24.08
2016-11-08T12:50:13.868Z,24.05
2016-11-08T12:51:27.407Z,24.22
2016-11-08T12:52:40.503Z,24.27
2016-11-08T12:53:54.038Z,24.5
2016-11-08T12:55:07.604Z,24.6
2016-11-08T12:56:21.215Z,24.73
2016-11-08T12:57:34.836Z,24.84
2016-11-08T12:58:48.588Z,24.91
2016-11-08T13:00:02.212Z,24.88
2016-11-08T13:01:15.930Z,25.06
2016-11-08T13:02:29.551Z,25.21
2016-11-08T13:03:43.150Z,25.39
2016-11-08T13:04:56.122Z,25.55
2016-11-08T13:06:09.773Z,25.77
2016-11-08T13:07:23.319Z,25.85
2016-11-08T13:08:36.932Z,25.91
2016-11-08T13:09:50.479Z,25.95
2016-11-08T13:11:04.088Z,26.13
2016-11-08T13:12:17.672Z,26.25
2016-11-08T13:13:31.246Z,26.28
2016-11-08T13:14:44.873Z,26.33
2016-11-08T13:15:58.520Z,26.39
2016-11-08T13:17:12.171Z,26.58
2016-11-08T13:18:26.025Z,26.69
2016-11-08T13:19:39.678Z,26.82
2016-11-08T13:20:53.245Z,26.89
2016-11-08T13:22:07.055Z,27.04
2016-11-08T13:23:20.575Z,27.06
2016-11-08T13:24:34.144Z,27.13
2016-11-08T13:25:47.763Z,27.18
2016-11-08T13:27:01.098Z,27.19
2016-11-08T13:28:14.690Z,27.4
2016-11-08T13:29:28.202Z,27.49
2016-11-08T13:30:41.837Z,27.74
2016-11-08T13:31:55.400Z,27.77
2016-11-08T13:33:08.994Z,27.75
2016-11-08T13:34:22.680Z,27.75
2016-11-08T13:35:36.207Z,27.72
2016-11-08T13:36:49.794Z,27.94
2016-11-08T13:38:03.389Z,28.03
2016-11-08T13:39:17.072Z,27.94
2016-11-08T13:40:30.072Z,28.14
2016-11-08T13:41:42.864Z,28.18
2016-11-08T13:42:56.209Z,28.44
2016-11-08T13:44:09.757Z,28.61
2016-11-08T13:45:22.866Z,28.59
2016-11-08T13:46:35.372Z,28.59
2016-11-08T13:47:48.988Z,28.73
2016-11-08T13:50:46.230Z,29.21
2016-11-08T13:51:58.796Z,29.28
2016-11-08T13:53:12.389Z,29.21
2016-11-08T13:54:24.838Z,29.28
2016-11-08T13:55:38.381Z,29.3
2016-11-08T13:56:51.937Z,29.31
2016-11-08T13:58:05.569Z,29.31
2016-11-08T13:59:18.606Z,29.46
2016-11-08T14:00:31.719Z,29.55
2016-11-08T14:01:44.840Z,29.71
2016-11-08T14:02:57.957Z,29.78
2016-11-08T14:04:11.595Z,29.9
2016-11-08T14:05:25.189Z,30.17
2016-11-08T14:06:38.720Z,30.29
2016-11-08T14:07:52.356Z,30.54
2016-11-08T14:09:05.933Z,30.79
2016-11-08T14:10:19.497Z,31.07
2016-11-08T14:11:32.846Z,31.19
2016-11-08T14:12:45.861Z,31.29
2016-11-08T14:13:59.450Z,31.29
2016-11-08T14:15:13.056Z,31.38
2016-11-08T14:16:26.567Z,31.88
2016-11-08T14:17:39.567Z,31.85
2016-11-08T14:18:53.186Z,32.13
2016-11-08T14:20:06.822Z,32.52
2016-11-08T14:21:19.839Z,32.69
2016-11-08T14:22:33.421Z,32.92
2016-11-08T14:23:46.590Z,33.32
2016-11-08T14:25:00.234Z,33.57
2016-11-08T14:26:13.857Z,33.81
2016-11-08T14:27:27.412Z,34.39
2016-11-08T14:28:40.460Z,34.69
2016-11-08T14:29:54.123Z,34.73
2016-11-08T14:31:07.661Z,34.92
2016-11-08T14:32:20.777Z,35.29
2016-11-08T14:33:33.862Z,35.89
2016-11-08T14:34:47.580Z,35.97
2016-11-08T14:35:59.851Z,35.28
2016-11-08T14:37:12.928Z,34.84
2016-11-08T14:38:26.007Z,34.78
2016-11-08T14:39:39.066Z,34.16
2016-11-08T14:40:52.390Z,34.17
2016-11-08T14:42:05.936Z,34.46
2016-11-08T14:43:19.556Z,34.27
2016-11-08T14:44:32.698Z,34.61
2016-11-08T14:45:46.203Z,34.92
2016-11-08T14:46:59.549Z,35.19
2016-11-08T14:48:13.203Z,35.28
2016-11-08T14:49:26.790Z,35.38
2016-11-08T14:50:40.389Z,35.94
2016-11-08T14:51:53.467Z,36.16
2016-11-08T14:53:06.527Z,36.15
2016-11-08T14:54:19.658Z,36.44
2016-11-08T14:55:32.905Z,36.47
2016-11-08T14:56:46.513Z,36.75
2016-11-08T14:58:00.095Z,37.25
2016-11-08T14:59:13.447Z,37.36
2016-11-08T15:00:26.449Z,37.79
2016-11-08T15:01:39.478Z,37.85
2016-11-08T15:02:53.164Z,37.39
2016-11-08T15:04:06.739Z,37.32
2016-11-08T15:05:19.281Z,36.65
2016-11-08T15:06:32.855Z,35.5
2016-11-08T15:07:45.924Z,35.28
2016-11-08T15:08:59.017Z,34.77
2016-11-08T15:10:12.656Z,34.34
2016-11-08T15:11:25.696Z,33.87
2016-11-08T15:12:39.407Z,33.78
2016-11-08T15:13:52.452Z,33.57
2016-11-08T15:15:06.019Z,33.41
2016-11-08T15:16:19.556Z,33.29
2016-11-08T15:17:32.370Z,33.51
2016-11-08T15:18:46.050Z,33.87
2016-11-08T15:19:59.069Z,33.88
2016-11-08T15:21:12.604Z,34.27
2016-11-08T15:22:26.197Z,34.75
2016-11-08T15:23:39.224Z,35.07
2016-11-08T15:24:52.821Z,35.09
2016-11-08T15:26:06.405Z,34.62
2016-11-08T15:27:19.957Z,34.97
2016-11-08T15:28:33.057Z,35.43
2016-11-08T15:29:46.624Z,35.97
2016-11-08T15:30:58.658Z,36.46
2016-11-08T15:32:11.749Z,36.99
2016-11-08T15:33:25.308Z,36.93
2016-11-08T15:34:38.091Z,37.17
2016-11-08T15:35:51.850Z,37.05
2016-11-08T15:37:05.448Z,36.51
2016-11-08T15:38:19.095Z,36
2016-11-08T15:39:32.687Z,35.75
2016-11-08T15:40:46.277Z,35.47
2016-11-08T15:41:59.852Z,35.77
2016-11-08T15:43:13.440Z,36.15
2016-11-08T15:44:26.442Z,36.46
2016-11-08T15:45:39.449Z,37.27
2016-11-08T15:46:53.054Z,37.89
2016-11-08T15:48:06.607Z,38.34
2016-11-08T15:49:19.401Z,39.04
2016-11-08T15:50:32.431Z,39.43
2016-11-08T15:51:45.526Z,39.79
2016-11-08T15:52:58.371Z,39.63
2016-11-08T15:54:11.939Z,39.77
2016-11-08T15:57:09.957Z,39.11
2016-11-08T15:58:22.997Z,38.22
2016-11-08T15:59:36.579Z,37.6
2016-11-08T16:01:21.362Z,37.05
2016-11-08T16:02:34.477Z,36.71